createdAt,value
2022-07-31T00:01:32.218Z,7.89794921875
2022-07-31T00:11:32.063Z,7.70263671875
2022-07-31T00:21:31.993Z,7.70263671875
2022-07-31T00:31:31.926Z,7.89794921875
2022-07-31T00:41:31.833Z,7.89794921875
2022-07-31T00:51:31.770Z,8.001708984375
2022-07-31T01:01:31.726Z,8.3984375
2022-07-31T01:11:31.651Z,8.697509765625
2022-07-31T01:21:31.565Z,9.002685546875
2022-07-31T01:31:31.616Z,8.599853515625
2022-07-31T01:41:31.431Z,8.697509765625
2022-07-31T01:51:31.370Z,8.89892578125
2022-07-31T02:01:31.339Z,9.197998046875
2022-07-31T02:11:31.276Z,9.100341796875
2022-07-31T02:21:31.171Z,9.197998046875
2022-07-31T02:31:31.127Z,9.3994140625
2022-07-31T02:41:31.028Z,9.3994140625
2022-07-31T02:51:30.943Z,9.002685546875
2022-07-31T03:01:30.883Z,9.197998046875
2022-07-31T03:11:30.817Z,9.100341796875
2022-07-31T03:21:30.744Z,9.100341796875
2022-07-31T03:31:30.657Z,8.80126953125
2022-07-31T03:41:30.588Z,8.89892578125
2022-07-31T03:51:30.541Z,9.002685546875
2022-07-31T04:01:57.704Z,8.502197265625
2022-07-31T04:11:30.386Z,8.30078125
2022-07-31T04:21:30.332Z,8.099365234375
2022-07-31T04:31:30.246Z,8.197021484375
2022-07-31T04:41:30.183Z,8.001708984375
2022-07-31T04:51:30.142Z,7.89794921875
2022-07-31T05:01:30.152Z,7.70263671875
2022-07-31T05:11:29.979Z,7.501220703125
2022-07-31T05:21:29.922Z,7.3974609375
2022-07-31T05:31:29.847Z,7.000732421875
2022-07-31T05:41:29.778Z,6.597900390625
2022-07-31T05:51:30.009Z,6.298828125
2022-07-31T06:01:29.756Z,6.1004638671875
2022-07-31T06:11:29.578Z,5.8990478515625
2022-07-31T06:21:30.938Z,5.70068359375
2022-07-31T06:31:29.434Z,5.5999755859375
2022-07-31T06:41:29.450Z,5.499267578125
2022-07-31T06:51:31.344Z,5.3985595703125
2022-07-31T07:01:29.255Z,5.3009033203125
2022-07-31T07:11:29.162Z,5.3009033203125
2022-07-31T07:21:29.097Z,5.0994873046875
2022-07-31T07:31:29.027Z,5.0994873046875
2022-07-31T07:41:28.962Z,5.0994873046875
2022-07-31T07:51:28.881Z,5.0994873046875
2022-07-31T08:01:28.899Z,5.0994873046875
2022-07-31T08:11:28.757Z,4.998779296875
2022-07-31T08:21:28.691Z,4.998779296875
2022-07-31T08:31:28.624Z,4.901123046875
2022-07-31T08:41:28.559Z,4.8004150390625
2022-07-31T08:51:28.490Z,4.69970703125
2022-07-31T09:01:28.554Z,4.8004150390625
2022-07-31T09:11:28.359Z,4.69970703125
2022-07-31T09:21:28.293Z,4.69970703125
2022-07-31T09:31:28.231Z,4.69970703125
2022-07-31T09:42:00.070Z,4.69970703125
2022-07-31T09:51:28.105Z,4.69970703125
2022-07-31T10:01:28.131Z,4.69970703125
2022-07-31T10:11:27.947Z,4.5989990234375
2022-07-31T10:21:27.890Z,4.5989990234375
2022-07-31T10:31:28.872Z,4.5989990234375
2022-07-31T10:41:27.749Z,4.5013427734375
2022-07-31T10:51:27.696Z,4.5989990234375
2022-07-31T11:01:28.159Z,4.5989990234375
2022-07-31T11:11:27.659Z,4.5013427734375
2022-07-31T11:21:38.698Z,4.5013427734375
2022-07-31T11:31:27.430Z,4.5013427734375
2022-07-31T11:41:27.477Z,4.400634765625
2022-07-31T11:51:27.309Z,4.2999267578125
2022-07-31T12:01:27.248Z,4.400634765625
2022-07-31T12:11:27.169Z,4.2999267578125
2022-07-31T12:21:27.078Z,4.2999267578125
2022-07-31T12:31:27.051Z,4.2999267578125
2022-07-31T12:41:26.949Z,4.400634765625
2022-07-31T12:51:44.274Z,4.400634765625
2022-07-31T13:01:26.867Z,4.400634765625
2022-07-31T13:11:26.765Z,4.400634765625
2022-07-31T13:21:26.687Z,4.2999267578125
2022-07-31T13:31:26.626Z,4.2999267578125
2022-07-31T13:41:26.552Z,4.0985107421875
2022-07-31T13:51:28.710Z,4.19921875
2022-07-31T14:01:26.442Z,4.2999267578125
2022-07-31T14:11:26.365Z,4.2999267578125
2022-07-31T14:21:26.319Z,4.19921875
2022-07-31T14:31:26.219Z,4.19921875
2022-07-31T14:41:26.141Z,4.19921875
2022-07-31T14:51:26.092Z,4.0985107421875
2022-07-31T15:01:26.780Z,4.0985107421875
2022-07-31T15:11:58.299Z,4.0008544921875
2022-07-31T15:21:25.887Z,4.0985107421875
2022-07-31T15:31:25.806Z,4.0985107421875
2022-07-31T15:41:25.745Z,4.0985107421875
2022-07-31T15:51:25.684Z,4.19921875
2022-07-31T16:01:25.647Z,4.0985107421875
2022-07-31T16:12:02.721Z,4.400634765625
2022-07-31T16:21:25.500Z,4.2999267578125
2022-07-31T16:31:30.271Z,4.19921875
2022-07-31T16:41:25.345Z,4.0985107421875
2022-07-31T16:51:25.289Z,4.0008544921875
2022-07-31T17:01:58.783Z,4.0008544921875
2022-07-31T17:11:25.176Z,3.900146484375
2022-07-31T17:21:25.079Z,4.0008544921875
2022-07-31T17:31:25.054Z,4.0008544921875
2022-07-31T17:41:25.886Z,4.0008544921875
2022-07-31T17:51:24.893Z,4.0008544921875
2022-07-31T18:01:28.887Z,4.19921875
2022-07-31T18:11:24.757Z,4.2999267578125
2022-07-31T18:21:24.809Z,4.0985107421875
2022-07-31T18:31:34.625Z,3.900146484375
2022-07-31T18:41:24.543Z,3.900146484375
2022-07-31T18:51:24.659Z,4.0985107421875
2022-07-31T19:01:24.444Z,4.0985107421875
2022-07-31T19:11:24.351Z,4.0985107421875
2022-07-31T19:21:42.269Z,4.0008544921875
2022-07-31T19:31:24.219Z,4.0008544921875
2022-07-31T19:41:24.160Z,4.0008544921875
2022-07-31T19:51:24.097Z,4.5989990234375
2022-07-31T20:01:24.017Z,4.5013427734375
2022-07-31T20:11:23.976Z,4.2999267578125
2022-07-31T20:21:23.888Z,4.2999267578125
2022-07-31T20:31:23.815Z,4.400634765625
2022-07-31T20:41:23.863Z,4.400634765625
2022-07-31T20:51:23.783Z,4.400634765625
2022-07-31T21:01:23.726Z,4.400634765625
2022-07-31T21:11:31.630Z,4.998779296875
2022-07-31T21:21:23.485Z,4.8004150390625
2022-07-31T21:31:23.427Z,4.998779296875
2022-07-31T21:41:23.331Z,5.0994873046875
2022-07-31T21:51:23.307Z,5.70068359375
2022-07-31T22:01:23.271Z,5.8013916015625
2022-07-31T22:11:23.139Z,6.1004638671875
2022-07-31T22:21:23.074Z,7.098388671875
2022-07-31T22:31:23.016Z,7.89794921875
2022-07-31T22:41:22.935Z,8.599853515625
2022-07-31T22:51:22.871Z,9.100341796875
2022-07-31T23:01:22.781Z,9.89990234375
2022-07-31T23:11:22.770Z,10.400390625
2022-07-31T23:21:22.661Z,10.90087890625
2022-07-31T23:31:22.590Z,11.297607421875
2022-07-31T23:41:22.634Z,11.602783203125
2022-07-31T23:51:22.455Z,12.40234375
